sensor_id;sensor_type;location;lat;lon;timestamp;temperature;humidity
32522;DHT22;18963;51.504;5.316;2023-02-12T00:00:39;7.00;99.90
32522;DHT22;18963;51.504;5.316;2023-02-12T00:03:05;7.00;99.90
32522;DHT22;18963;51.504;5.316;2023-02-12T00:05:31;7.00;99.90
32522;DHT22;18963;51.504;5.316;2023-02-12T00:07:57;7.00;99.90
32522;DHT22;18963;51.504;5.316;2023-02-12T00:10:22;7.00;99.90
32522;DHT22;18963;51.504;5.316;2023-02-12T00:12:48;7.00;99.90
32522;DHT22;18963;51.504;5.316;2023-02-12T00:15:13;7.00;99.90
32522;DHT22;18963;51.504;5.316;2023-02-12T00:17:39;7.00;99.90
32522;DHT22;18963;51.504;5.316;2023-02-12T00:20:04;7.00;99.90
32522;DHT22;18963;51.504;5.316;2023-02-12T00:22:30;7.00;99.90
32522;DHT22;18963;51.504;5.316;2023-02-12T00:24:56;7.00;99.90
32522;DHT22;18963;51.504;5.316;2023-02-12T00:27:21;7.00;99.90
32522;DHT22;18963;51.504;5.316;2023-02-12T00:29:47;7.00;99.90
32522;DHT22;18963;51.504;5.316;2023-02-12T00:32:12;7.00;99.90
32522;DHT22;18963;51.504;5.316;2023-02-12T00:34:44;7.00;99.90
32522;DHT22;18963;51.504;5.316;2023-02-12T00:37:10;6.90;99.90
32522;DHT22;18963;51.504;5.316;2023-02-12T00:39:35;6.90;99.90
32522;DHT22;18963;51.504;5.316;2023-02-12T00:42:02;6.90;99.90
32522;DHT22;18963;51.504;5.316;2023-02-12T00:44:28;6.90;99.90
32522;DHT22;18963;51.504;5.316;2023-02-12T00:46:53;6.90;99.90
32522;DHT22;18963;51.504;5.316;2023-02-12T00:49:19;6.90;99.90
32522;DHT22;18963;51.504;5.316;2023-02-12T00:51:45;6.90;99.90
32522;DHT22;18963;51.504;5.316;2023-02-12T00:54:10;6.90;99.90
32522;DHT22;18963;51.504;5.316;2023-02-12T00:56:36;6.90;99.90
32522;DHT22;18963;51.504;5.316;2023-02-12T00:59:01;6.90;99.90
32522;DHT22;18963;51.504;5.316;2023-02-12T01:01:27;6.90;99.90
32522;DHT22;18963;51.504;5.316;2023-02-12T01:03:52;6.90;99.90
32522;DHT22;18963;51.504;5.316;2023-02-12T01:06:18;6.90;99.90
32522;DHT22;18963;51.504;5.316;2023-02-12T01:08:43;6.90;99.90
32522;DHT22;18963;51.504;5.316;2023-02-12T01:11:10;6.90;99.90
32522;DHT22;18963;51.504;5.316;2023-02-12T01:13:37;6.90;99.90
32522;DHT22;18963;51.504;5.316;2023-02-12T01:16:03;6.90;99.90
32522;DHT22;18963;51.504;5.316;2023-02-12T01:18:30;6.90;99.90
32522;DHT22;18963;51.504;5.316;2023-02-12T01:20:56;6.80;99.90
32522;DHT22;18963;51.504;5.316;2023-02-12T01:23:23;6.90;99.90
32522;DHT22;18963;51.504;5.316;2023-02-12T01:25:48;6.90;99.90
32522;DHT22;18963;51.504;5.316;2023-02-12T01:28:14;6.90;99.90
32522;DHT22;18963;51.504;5.316;2023-02-12T01:30:39;6.90;99.90
32522;DHT22;18963;51.504;5.316;2023-02-12T01:33:05;6.90;99.90
32522;DHT22;18963;51.504;5.316;2023-02-12T01:35:30;6.90;99.90
32522;DHT22;18963;51.504;5.316;2023-02-12T01:37:56;6.90;99.90
32522;DHT22;18963;51.504;5.316;2023-02-12T01:40:23;6.90;99.90
32522;DHT22;18963;51.504;5.316;2023-02-12T01:42:48;6.90;99.90
32522;DHT22;18963;51.504;5.316;2023-02-12T01:47:40;6.90;99.90
32522;DHT22;18963;51.504;5.316;2023-02-12T01:50:06;6.90;99.90
32522;DHT22;18963;51.504;5.316;2023-02-12T01:52:33;6.80;99.90
32522;DHT22;18963;51.504;5.316;2023-02-12T01:54:59;6.80;99.90
32522;DHT22;18963;51.504;5.316;2023-02-12T01:57:26;6.80;99.90
32522;DHT22;18963;51.504;5.316;2023-02-12T01:59:53;6.80;99.90
32522;DHT22;18963;51.504;5.316;2023-02-12T02:02:20;6.80;99.90
32522;DHT22;18963;51.504;5.316;2023-02-12T02:04:47;6.80;99.90
32522;DHT22;18963;51.504;5.316;2023-02-12T02:07:14;6.80;99.90
32522;DHT22;18963;51.504;5.316;2023-02-12T02:09:39;6.80;99.90
32522;DHT22;18963;51.504;5.316;2023-02-12T02:12:05;6.80;99.90
32522;DHT22;18963;51.504;5.316;2023-02-12T02:14:50;6.70;99.90
32522;DHT22;18963;51.504;5.316;2023-02-12T02:22:39;6.70;99.90
32522;DHT22;18963;51.504;5.316;2023-02-12T02:40:52;6.80;99.90
32522;DHT22;18963;51.504;5.316;2023-02-12T02:43:22;6.70;99.90
32522;DHT22;18963;51.504;5.316;2023-02-12T02:45:50;6.70;99.90
32522;DHT22;18963;51.504;5.316;2023-02-12T02:48:26;6.70;99.90
32522;DHT22;18963;51.504;5.316;2023-02-12T02:50:56;6.70;99.90
32522;DHT22;18963;51.504;5.316;2023-02-12T02:53:30;6.70;99.90
32522;DHT22;18963;51.504;5.316;2023-02-12T02:55:57;6.70;99.90
32522;DHT22;18963;51.504;5.316;2023-02-12T02:58:31;6.70;99.90
32522;DHT22;18963;51.504;5.316;2023-02-12T03:01:05;6.70;99.90
32522;DHT22;18963;51.504;5.316;2023-02-12T03:08:59;6.70;99.90
32522;DHT22;18963;51.504;5.316;2023-02-12T03:11:26;6.70;99.90
32522;DHT22;18963;51.504;5.316;2023-02-12T03:16:22;6.60;99.90
32522;DHT22;18963;51.504;5.316;2023-02-12T03:18:52;6.60;99.90
32522;DHT22;18963;51.504;5.316;2023-02-12T03:21:21;6.60;99.90
32522;DHT22;18963;51.504;5.316;2023-02-12T03:23:55;6.60;99.90
32522;DHT22;18963;51.504;5.316;2023-02-12T03:26:22;6.60;99.90
32522;DHT22;18963;51.504;5.316;2023-02-12T03:28:49;6.60;99.90
32522;DHT22;18963;51.504;5.316;2023-02-12T03:38:53;6.60;99.90
32522;DHT22;18963;51.504;5.316;2023-02-12T03:41:20;6.60;99.90
32522;DHT22;18963;51.504;5.316;2023-02-12T03:43:48;6.60;99.90
32522;DHT22;18963;51.504;5.316;2023-02-12T03:48:51;6.50;99.90
32522;DHT22;18963;51.504;5.316;2023-02-12T03:51:22;6.50;99.90
32522;DHT22;18963;51.504;5.316;2023-02-12T03:53:49;6.50;99.90
32522;DHT22;18963;51.504;5.316;2023-02-12T03:56:17;6.50;99.90
32522;DHT22;18963;51.504;5.316;2023-02-12T03:58:44;6.50;99.90
32522;DHT22;18963;51.504;5.316;2023-02-12T04:01:10;6.50;99.90
32522;DHT22;18963;51.504;5.316;2023-02-12T04:03:36;6.50;99.90
32522;DHT22;18963;51.504;5.316;2023-02-12T04:06:01;6.50;99.90
32522;DHT22;18963;51.504;5.316;2023-02-12T04:08:27;6.50;99.90
32522;DHT22;18963;51.504;5.316;2023-02-12T04:18:49;6.50;99.90
32522;DHT22;18963;51.504;5.316;2023-02-12T04:34:14;6.50;99.90
32522;DHT22;18963;51.504;5.316;2023-02-12T04:37:21;6.50;99.90
32522;DHT22;18963;51.504;5.316;2023-02-12T04:39:28;6.50;99.90
32522;DHT22;18963;51.504;5.316;2023-02-12T04:41:57;6.50;99.90
32522;DHT22;18963;51.504;5.316;2023-02-12T04:44:23;6.50;99.90
32522;DHT22;18963;51.504;5.316;2023-02-12T04:46:49;6.50;99.90
32522;DHT22;18963;51.504;5.316;2023-02-12T04:49:16;6.50;99.90
32522;DHT22;18963;51.504;5.316;2023-02-12T04:51:41;6.50;99.90
32522;DHT22;18963;51.504;5.316;2023-02-12T04:54:07;6.50;99.90
32522;DHT22;18963;51.504;5.316;2023-02-12T04:56:33;6.50;99.90
32522;DHT22;18963;51.504;5.316;2023-02-12T04:58:58;6.50;99.90
32522;DHT22;18963;51.504;5.316;2023-02-12T05:01:23;6.50;99.90
32522;DHT22;18963;51.504;5.316;2023-02-12T05:03:50;6.50;99.90
32522;DHT22;18963;51.504;5.316;2023-02-12T05:06:16;6.50;99.90
32522;DHT22;18963;51.504;5.316;2023-02-12T05:08:41;6.50;99.90
32522;DHT22;18963;51.504;5.316;2023-02-12T05:11:07;6.60;99.90
32522;DHT22;18963;51.504;5.316;2023-02-12T05:13:33;6.60;99.90
32522;DHT22;18963;51.504;5.316;2023-02-12T05:15:59;6.60;99.90
32522;DHT22;18963;51.504;5.316;2023-02-12T05:18:27;6.60;99.90
32522;DHT22;18963;51.504;5.316;2023-02-12T05:21:00;6.60;99.90
32522;DHT22;18963;51.504;5.316;2023-02-12T05:23:26;6.50;99.90
32522;DHT22;18963;51.504;5.316;2023-02-12T05:25:52;6.60;99.90
32522;DHT22;18963;51.504;5.316;2023-02-12T05:28:18;6.50;99.90
32522;DHT22;18963;51.504;5.316;2023-02-12T05:30:43;6.50;99.90
32522;DHT22;18963;51.504;5.316;2023-02-12T05:33:09;6.60;99.90
32522;DHT22;18963;51.504;5.316;2023-02-12T05:35:34;6.60;99.90
32522;DHT22;18963;51.504;5.316;2023-02-12T05:38:00;6.50;99.90
32522;DHT22;18963;51.504;5.316;2023-02-12T05:40:25;6.50;99.90
32522;DHT22;18963;51.504;5.316;2023-02-12T05:42:51;6.50;99.90
32522;DHT22;18963;51.504;5.316;2023-02-12T05:45:16;6.50;99.90
32522;DHT22;18963;51.504;5.316;2023-02-12T05:47:42;6.50;99.90
32522;DHT22;18963;51.504;5.316;2023-02-12T05:50:07;6.50;99.90
32522;DHT22;18963;51.504;5.316;2023-02-12T05:52:33;6.50;99.90
32522;DHT22;18963;51.504;5.316;2023-02-12T05:54:58;6.50;99.90
32522;DHT22;18963;51.504;5.316;2023-02-12T05:57:24;6.50;99.90
32522;DHT22;18963;51.504;5.316;2023-02-12T05:59:49;6.50;99.90
32522;DHT22;18963;51.504;5.316;2023-02-12T06:02:15;6.50;99.90
32522;DHT22;18963;51.504;5.316;2023-02-12T06:04:40;6.50;99.90
32522;DHT22;18963;51.504;5.316;2023-02-12T06:07:06;6.50;99.90
32522;DHT22;18963;51.504;5.316;2023-02-12T06:09:32;6.50;99.90
32522;DHT22;18963;51.504;5.316;2023-02-12T06:11:59;6.50;99.90
32522;DHT22;18963;51.504;5.316;2023-02-12T06:14:24;6.50;99.90
32522;DHT22;18963;51.504;5.316;2023-02-12T06:16:52;6.50;99.90
32522;DHT22;18963;51.504;5.316;2023-02-12T06:19:18;6.50;99.90
32522;DHT22;18963;51.504;5.316;2023-02-12T06:21:44;6.50;99.90
32522;DHT22;18963;51.504;5.316;2023-02-12T06:24:11;6.50;99.90
32522;DHT22;18963;51.504;5.316;2023-02-12T06:26:36;6.40;99.90
32522;DHT22;18963;51.504;5.316;2023-02-12T06:29:02;6.50;99.90
32522;DHT22;18963;51.504;5.316;2023-02-12T06:31:28;6.40;99.90
32522;DHT22;18963;51.504;5.316;2023-02-12T06:33:56;6.40;99.90
32522;DHT22;18963;51.504;5.316;2023-02-12T06:36:22;6.40;99.90
32522;DHT22;18963;51.504;5.316;2023-02-12T06:38:48;6.40;99.90
32522;DHT22;18963;51.504;5.316;2023-02-12T06:41:14;6.40;99.90
32522;DHT22;18963;51.504;5.316;2023-02-12T06:43:39;6.40;99.90
32522;DHT22;18963;51.504;5.316;2023-02-12T06:46:05;6.40;99.90
32522;DHT22;18963;51.504;5.316;2023-02-12T06:48:31;6.40;99.90
32522;DHT22;18963;51.504;5.316;2023-02-12T06:51:02;6.40;99.90
32522;DHT22;18963;51.504;5.316;2023-02-12T06:53:28;6.40;99.90
32522;DHT22;18963;51.504;5.316;2023-02-12T06:55:53;6.40;99.90
32522;DHT22;18963;51.504;5.316;2023-02-12T06:58:19;6.40;99.90
32522;DHT22;18963;51.504;5.316;2023-02-12T07:00:44;6.40;99.90
32522;DHT22;18963;51.504;5.316;2023-02-12T07:03:10;6.40;99.90
32522;DHT22;18963;51.504;5.316;2023-02-12T07:05:38;6.40;99.90
32522;DHT22;18963;51.504;5.316;2023-02-12T07:08:03;6.40;99.90
32522;DHT22;18963;51.504;5.316;2023-02-12T07:10:29;6.40;99.90
32522;DHT22;18963;51.504;5.316;2023-02-12T07:12:54;6.40;99.90
32522;DHT22;18963;51.504;5.316;2023-02-12T07:15:20;6.40;99.90
32522;DHT22;18963;51.504;5.316;2023-02-12T07:17:45;6.40;99.90
32522;DHT22;18963;51.504;5.316;2023-02-12T07:20:11;6.40;99.90
32522;DHT22;18963;51.504;5.316;2023-02-12T07:22:37;6.40;99.90
32522;DHT22;18963;51.504;5.316;2023-02-12T07:25:02;6.40;99.90
32522;DHT22;18963;51.504;5.316;2023-02-12T07:27:28;6.40;99.90
32522;DHT22;18963;51.504;5.316;2023-02-12T07:29:53;6.40;99.90
32522;DHT22;18963;51.504;5.316;2023-02-12T07:32:19;6.40;99.90
32522;DHT22;18963;51.504;5.316;2023-02-12T07:34:44;6.40;99.90
32522;DHT22;18963;51.504;5.316;2023-02-12T07:37:10;6.40;99.90
32522;DHT22;18963;51.504;5.316;2023-02-12T07:39:36;6.50;99.90
32522;DHT22;18963;51.504;5.316;2023-02-12T07:42:02;6.50;99.90
32522;DHT22;18963;51.504;5.316;2023-02-12T07:44:27;6.50;99.90
32522;DHT22;18963;51.504;5.316;2023-02-12T07:46:53;6.60;99.90
32522;DHT22;18963;51.504;5.316;2023-02-12T07:49:19;6.60;99.90
32522;DHT22;18963;51.504;5.316;2023-02-12T07:51:46;6.60;99.90
32522;DHT22;18963;51.504;5.316;2023-02-12T07:54:12;6.70;99.90
32522;DHT22;18963;51.504;5.316;2023-02-12T07:56:38;6.70;99.90
32522;DHT22;18963;51.504;5.316;2023-02-12T07:59:06;6.70;99.90
32522;DHT22;18963;51.504;5.316;2023-02-12T08:01:32;6.70;99.90
32522;DHT22;18963;51.504;5.316;2023-02-12T08:04:09;6.80;99.90
32522;DHT22;18963;51.504;5.316;2023-02-12T08:06:36;6.80;99.90
32522;DHT22;18963;51.504;5.316;2023-02-12T08:09:03;6.90;99.90
32522;DHT22;18963;51.504;5.316;2023-02-12T08:11:34;6.90;99.90
32522;DHT22;18963;51.504;5.316;2023-02-12T08:13:59;6.90;99.90
32522;DHT22;18963;51.504;5.316;2023-02-12T08:16:25;7.00;99.90
32522;DHT22;18963;51.504;5.316;2023-02-12T08:18:51;7.00;99.90
32522;DHT22;18963;51.504;5.316;2023-02-12T08:21:18;7.00;99.90
32522;DHT22;18963;51.504;5.316;2023-02-12T08:23:44;7.10;99.90
32522;DHT22;18963;51.504;5.316;2023-02-12T08:26:11;7.10;99.90
32522;DHT22;18963;51.504;5.316;2023-02-12T08:28:38;7.20;99.90
32522;DHT22;18963;51.504;5.316;2023-02-12T08:31:04;7.20;99.90
32522;DHT22;18963;51.504;5.316;2023-02-12T08:33:33;7.30;99.90
32522;DHT22;18963;51.504;5.316;2023-02-12T08:36:00;7.30;99.90
32522;DHT22;18963;51.504;5.316;2023-02-12T08:38:26;7.40;99.90
32522;DHT22;18963;51.504;5.316;2023-02-12T08:40:51;7.40;99.90
32522;DHT22;18963;51.504;5.316;2023-02-12T08:43:17;7.50;99.90
32522;DHT22;18963;51.504;5.316;2023-02-12T08:45:42;7.50;99.90
32522;DHT22;18963;51.504;5.316;2023-02-12T08:48:08;7.60;99.90
32522;DHT22;18963;51.504;5.316;2023-02-12T08:50:33;7.60;99.90
32522;DHT22;18963;51.504;5.316;2023-02-12T08:52:59;7.60;99.90
32522;DHT22;18963;51.504;5.316;2023-02-12T08:55:24;7.70;99.90
32522;DHT22;18963;51.504;5.316;2023-02-12T08:57:50;7.70;99.90
32522;DHT22;18963;51.504;5.316;2023-02-12T09:00:17;7.80;99.90
32522;DHT22;18963;51.504;5.316;2023-02-12T09:02:43;7.90;99.90
32522;DHT22;18963;51.504;5.316;2023-02-12T09:05:09;7.90;99.90
32522;DHT22;18963;51.504;5.316;2023-02-12T09:07:34;7.90;99.90
32522;DHT22;18963;51.504;5.316;2023-02-12T09:10:00;8.00;99.90
32522;DHT22;18963;51.504;5.316;2023-02-12T09:12:25;8.00;99.90
32522;DHT22;18963;51.504;5.316;2023-02-12T09:14:51;8.10;99.90
32522;DHT22;18963;51.504;5.316;2023-02-12T09:17:16;8.20;99.90
32522;DHT22;18963;51.504;5.316;2023-02-12T09:19:42;8.20;99.90
32522;DHT22;18963;51.504;5.316;2023-02-12T09:22:07;8.20;99.90
32522;DHT22;18963;51.504;5.316;2023-02-12T09:24:33;8.20;99.90
32522;DHT22;18963;51.504;5.316;2023-02-12T09:26:58;8.30;99.90
32522;DHT22;18963;51.504;5.316;2023-02-12T09:29:23;8.30;99.90
32522;DHT22;18963;51.504;5.316;2023-02-12T09:31:49;8.30;99.90
32522;DHT22;18963;51.504;5.316;2023-02-12T09:34:15;8.40;99.90
32522;DHT22;18963;51.504;5.316;2023-02-12T09:36:40;8.40;99.90
32522;DHT22;18963;51.504;5.316;2023-02-12T09:39:05;8.40;99.90
32522;DHT22;18963;51.504;5.316;2023-02-12T09:43:59;8.40;99.90
32522;DHT22;18963;51.504;5.316;2023-02-12T09:46:30;8.50;99.90
32522;DHT22;18963;51.504;5.316;2023-02-12T09:49:10;8.50;99.90
32522;DHT22;18963;51.504;5.316;2023-02-12T09:51:41;8.50;99.90
32522;DHT22;18963;51.504;5.316;2023-02-12T09:54:14;8.50;99.90
32522;DHT22;18963;51.504;5.316;2023-02-12T09:56:42;8.60;99.90
32522;DHT22;18963;51.504;5.316;2023-02-12T09:59:55;8.60;99.90
32522;DHT22;18963;51.504;5.316;2023-02-12T10:02:24;8.60;99.90
32522;DHT22;18963;51.504;5.316;2023-02-12T10:04:49;8.70;99.90
32522;DHT22;18963;51.504;5.316;2023-02-12T10:07:42;8.70;99.90
32522;DHT22;18963;51.504;5.316;2023-02-12T10:15:16;8.70;99.90
32522;DHT22;18963;51.504;5.316;2023-02-12T10:25:31;8.70;99.90
32522;DHT22;18963;51.504;5.316;2023-02-12T10:28:00;8.70;99.90
32522;DHT22;18963;51.504;5.316;2023-02-12T10:30:33;8.70;99.90
32522;DHT22;18963;51.504;5.316;2023-02-12T10:33:02;8.70;99.90
32522;DHT22;18963;51.504;5.316;2023-02-12T10:35:28;8.70;99.90
32522;DHT22;18963;51.504;5.316;2023-02-12T10:37:57;8.70;99.90
32522;DHT22;18963;51.504;5.316;2023-02-12T10:40:28;8.70;99.90
32522;DHT22;18963;51.504;5.316;2023-02-12T10:42:57;8.80;99.90
32522;DHT22;18963;51.504;5.316;2023-02-12T10:47:53;8.80;99.90
32522;DHT22;18963;51.504;5.316;2023-02-12T10:50:22;8.90;99.90
32522;DHT22;18963;51.504;5.316;2023-02-12T10:52:50;8.90;99.90
32522;DHT22;18963;51.504;5.316;2023-02-12T10:56:03;8.90;99.90
32522;DHT22;18963;51.504;5.316;2023-02-12T10:58:21;8.90;99.90
32522;DHT22;18963;51.504;5.316;2023-02-12T11:00:58;9.00;99.90
32522;DHT22;18963;51.504;5.316;2023-02-12T11:03:29;9.10;99.90
32522;DHT22;18963;51.504;5.316;2023-02-12T11:05:55;9.10;99.90
32522;DHT22;18963;51.504;5.316;2023-02-12T11:08:28;9.10;99.90
32522;DHT22;18963;51.504;5.316;2023-02-12T11:10:54;9.10;99.90
32522;DHT22;18963;51.504;5.316;2023-02-12T11:13:26;9.10;99.90
32522;DHT22;18963;51.504;5.316;2023-02-12T11:15:52;9.10;99.90
32522;DHT22;18963;51.504;5.316;2023-02-12T11:18:28;9.20;99.90
32522;DHT22;18963;51.504;5.316;2023-02-12T11:21:04;9.20;99.90
32522;DHT22;18963;51.504;5.316;2023-02-12T11:23:34;9.20;99.90
32522;DHT22;18963;51.504;5.316;2023-02-12T11:28:28;9.30;99.90
32522;DHT22;18963;51.504;5.316;2023-02-12T11:30:55;9.30;99.90
32522;DHT22;18963;51.504;5.316;2023-02-12T11:33:26;9.30;99.90
32522;DHT22;18963;51.504;5.316;2023-02-12T11:36:13;9.30;99.90
32522;DHT22;18963;51.504;5.316;2023-02-12T11:38:38;9.20;99.90
32522;DHT22;18963;51.504;5.316;2023-02-12T11:41:17;9.20;99.90
32522;DHT22;18963;51.504;5.316;2023-02-12T11:43:43;9.30;99.90
32522;DHT22;18963;51.504;5.316;2023-02-12T11:46:09;9.30;99.90
32522;DHT22;18963;51.504;5.316;2023-02-12T11:48:36;9.40;99.90
32522;DHT22;18963;51.504;5.316;2023-02-12T11:51:04;9.40;99.90
32522;DHT22;18963;51.504;5.316;2023-02-12T11:53:31;9.40;99.90
32522;DHT22;18963;51.504;5.316;2023-02-12T11:56:01;9.50;99.90
32522;DHT22;18963;51.504;5.316;2023-02-12T11:58:27;9.50;99.90
32522;DHT22;18963;51.504;5.316;2023-02-12T12:03:27;9.60;99.90
32522;DHT22;18963;51.504;5.316;2023-02-12T12:05:55;9.60;99.90
32522;DHT22;18963;51.504;5.316;2023-02-12T12:08:24;9.60;99.90
32522;DHT22;18963;51.504;5.316;2023-02-12T12:10:59;9.70;99.90
32522;DHT22;18963;51.504;5.316;2023-02-12T12:13:32;9.70;99.90
32522;DHT22;18963;51.504;5.316;2023-02-12T12:16:46;9.70;99.90
32522;DHT22;18963;51.504;5.316;2023-02-12T12:19:11;9.70;99.90
32522;DHT22;18963;51.504;5.316;2023-02-12T12:22:08;9.80;99.90
32522;DHT22;18963;51.504;5.316;2023-02-12T12:24:40;9.80;99.90
32522;DHT22;18963;51.504;5.316;2023-02-12T12:27:18;9.80;99.90
32522;DHT22;18963;51.504;5.316;2023-02-12T12:30:23;9.80;99.90
32522;DHT22;18963;51.504;5.316;2023-02-12T12:32:53;9.80;99.90
32522;DHT22;18963;51.504;5.316;2023-02-12T12:35:22;9.80;99.90
32522;DHT22;18963;51.504;5.316;2023-02-12T12:38:13;9.80;99.90
32522;DHT22;18963;51.504;5.316;2023-02-12T12:40:41;9.80;99.90
32522;DHT22;18963;51.504;5.316;2023-02-12T12:43:13;9.80;99.90
32522;DHT22;18963;51.504;5.316;2023-02-12T12:45:55;9.80;99.90
32522;DHT22;18963;51.504;5.316;2023-02-12T12:51:38;9.80;99.90
32522;DHT22;18963;51.504;5.316;2023-02-12T12:57:11;9.80;99.90
32522;DHT22;18963;51.504;5.316;2023-02-12T13:02:49;9.90;99.90
32522;DHT22;18963;51.504;5.316;2023-02-12T13:10:54;9.90;99.90
32522;DHT22;18963;51.504;5.316;2023-02-12T13:13:29;9.90;99.90
32522;DHT22;18963;51.504;5.316;2023-02-12T13:16:03;9.90;99.90
32522;DHT22;18963;51.504;5.316;2023-02-12T13:21:02;9.90;99.90
32522;DHT22;18963;51.504;5.316;2023-02-12T13:29:18;9.80;99.90
32522;DHT22;18963;51.504;5.316;2023-02-12T13:31:24;9.80;99.90
32522;DHT22;18963;51.504;5.316;2023-02-12T13:33:53;9.70;99.90
32522;DHT22;18963;51.504;5.316;2023-02-12T13:36:19;9.70;99.90
32522;DHT22;18963;51.504;5.316;2023-02-12T13:39:09;9.60;99.90
32522;DHT22;18963;51.504;5.316;2023-02-12T13:41:31;9.60;99.90
32522;DHT22;18963;51.504;5.316;2023-02-12T13:56:36;9.60;99.90
32522;DHT22;18963;51.504;5.316;2023-02-12T13:59:27;9.50;99.90
32522;DHT22;18963;51.504;5.316;2023-02-12T14:01:50;9.50;99.90
32522;DHT22;18963;51.504;5.316;2023-02-12T14:06:51;9.40;99.90
32522;DHT22;18963;51.504;5.316;2023-02-12T14:09:19;9.40;99.90
32522;DHT22;18963;51.504;5.316;2023-02-12T14:11:49;9.40;99.90
32522;DHT22;18963;51.504;5.316;2023-02-12T14:19:55;9.40;99.90
32522;DHT22;18963;51.504;5.316;2023-02-12T14:24:56;9.30;99.90
32522;DHT22;18963;51.504;5.316;2023-02-12T14:27:24;9.30;99.90
32522;DHT22;18963;51.504;5.316;2023-02-12T14:37:56;9.20;99.90
32522;DHT22;18963;51.504;5.316;2023-02-12T14:43:02;9.20;99.90
32522;DHT22;18963;51.504;5.316;2023-02-12T14:47:53;9.30;99.90
32522;DHT22;18963;51.504;5.316;2023-02-12T14:50:21;9.30;99.90
32522;DHT22;18963;51.504;5.316;2023-02-12T14:52:51;9.30;99.90
32522;DHT22;18963;51.504;5.316;2023-02-12T14:57:43;9.30;99.90
32522;DHT22;18963;51.504;5.316;2023-02-12T15:02:40;9.40;99.90
32522;DHT22;18963;51.504;5.316;2023-02-12T15:05:12;9.30;99.90
32522;DHT22;18963;51.504;5.316;2023-02-12T15:07:44;9.40;99.90
32522;DHT22;18963;51.504;5.316;2023-02-12T15:10:12;9.30;99.90
32522;DHT22;18963;51.504;5.316;2023-02-12T15:15:17;9.20;99.90
32522;DHT22;18963;51.504;5.316;2023-02-12T15:17:59;9.20;99.90
32522;DHT22;18963;51.504;5.316;2023-02-12T15:23:31;9.20;99.90
32522;DHT22;18963;51.504;5.316;2023-02-12T15:25:57;9.10;99.90
32522;DHT22;18963;51.504;5.316;2023-02-12T15:28:24;9.10;99.90
32522;DHT22;18963;51.504;5.316;2023-02-12T15:30:53;9.10;99.90
32522;DHT22;18963;51.504;5.316;2023-02-12T15:33:23;9.10;99.90
32522;DHT22;18963;51.504;5.316;2023-02-12T15:35:51;9.00;99.90
32522;DHT22;18963;51.504;5.316;2023-02-12T15:38:19;9.00;99.90
32522;DHT22;18963;51.504;5.316;2023-02-12T15:40:56;9.00;99.90
32522;DHT22;18963;51.504;5.316;2023-02-12T15:43:24;9.00;99.90
32522;DHT22;18963;51.504;5.316;2023-02-12T15:45:51;9.00;99.90
32522;DHT22;18963;51.504;5.316;2023-02-12T15:48:17;9.00;99.90
32522;DHT22;18963;51.504;5.316;2023-02-12T15:53:11;8.90;99.90
32522;DHT22;18963;51.504;5.316;2023-02-12T15:55:38;8.80;99.90
32522;DHT22;18963;51.504;5.316;2023-02-12T15:58:13;8.80;99.90
32522;DHT22;18963;51.504;5.316;2023-02-12T16:00:53;8.80;99.90
32522;DHT22;18963;51.504;5.316;2023-02-12T16:03:23;8.70;99.90
32522;DHT22;18963;51.504;5.316;2023-02-12T16:05:49;8.70;99.90
32522;DHT22;18963;51.504;5.316;2023-02-12T16:08:16;8.70;99.90
32522;DHT22;18963;51.504;5.316;2023-02-12T16:10:43;8.70;99.90
32522;DHT22;18963;51.504;5.316;2023-02-12T16:13:31;8.70;99.90
32522;DHT22;18963;51.504;5.316;2023-02-12T16:16:03;8.70;99.90
32522;DHT22;18963;51.504;5.316;2023-02-12T16:18:28;8.60;99.90
32522;DHT22;18963;51.504;5.316;2023-02-12T16:21:04;8.60;99.90
32522;DHT22;18963;51.504;5.316;2023-02-12T16:23:33;8.60;99.90
32522;DHT22;18963;51.504;5.316;2023-02-12T16:25:59;8.50;99.90
32522;DHT22;18963;51.504;5.316;2023-02-12T16:28:28;8.50;99.90
32522;DHT22;18963;51.504;5.316;2023-02-12T16:31:05;8.50;99.90
32522;DHT22;18963;51.504;5.316;2023-02-12T16:33:53;8.50;99.90
32522;DHT22;18963;51.504;5.316;2023-02-12T16:43:34;8.30;99.90
32522;DHT22;18963;51.504;5.316;2023-02-12T16:46:00;8.30;99.90
32522;DHT22;18963;51.504;5.316;2023-02-12T16:48:27;8.30;99.90
32522;DHT22;18963;51.504;5.316;2023-02-12T16:50:54;8.30;99.90
32522;DHT22;18963;51.504;5.316;2023-02-12T16:53:25;8.30;99.90
32522;DHT22;18963;51.504;5.316;2023-02-12T16:55:50;8.20;99.90
32522;DHT22;18963;51.504;5.316;2023-02-12T16:58:16;8.20;99.90
32522;DHT22;18963;51.504;5.316;2023-02-12T17:00:41;8.20;99.90
32522;DHT22;18963;51.504;5.316;2023-02-12T17:03:13;8.20;99.90
32522;DHT22;18963;51.504;5.316;2023-02-12T17:05:40;8.10;99.90
32522;DHT22;18963;51.504;5.316;2023-02-12T17:08:15;8.10;99.90
32522;DHT22;18963;51.504;5.316;2023-02-12T17:10:40;8.10;99.90
32522;DHT22;18963;51.504;5.316;2023-02-12T17:13:06;8.10;99.90
32522;DHT22;18963;51.504;5.316;2023-02-12T17:15:34;8.10;99.90
32522;DHT22;18963;51.504;5.316;2023-02-12T17:18:02;8.00;99.90
32522;DHT22;18963;51.504;5.316;2023-02-12T17:20:28;8.00;99.90
32522;DHT22;18963;51.504;5.316;2023-02-12T17:22:53;8.00;99.90
32522;DHT22;18963;51.504;5.316;2023-02-12T17:25:21;8.00;99.90
32522;DHT22;18963;51.504;5.316;2023-02-12T17:27:47;8.00;99.90
32522;DHT22;18963;51.504;5.316;2023-02-12T17:30:18;8.00;99.90
32522;DHT22;18963;51.504;5.316;2023-02-12T17:32:48;8.00;99.90
32522;DHT22;18963;51.504;5.316;2023-02-12T17:35:14;7.90;99.90
32522;DHT22;18963;51.504;5.316;2023-02-12T17:37:39;7.90;99.90
32522;DHT22;18963;51.504;5.316;2023-02-12T17:40:05;7.90;99.90
32522;DHT22;18963;51.504;5.316;2023-02-12T17:42:31;7.90;99.90
32522;DHT22;18963;51.504;5.316;2023-02-12T17:44:56;7.90;99.90
32522;DHT22;18963;51.504;5.316;2023-02-12T17:47:22;7.90;99.90
32522;DHT22;18963;51.504;5.316;2023-02-12T17:49:48;7.90;99.90
32522;DHT22;18963;51.504;5.316;2023-02-12T17:52:13;7.90;99.90
32522;DHT22;18963;51.504;5.316;2023-02-12T17:54:39;7.90;99.90
32522;DHT22;18963;51.504;5.316;2023-02-12T17:57:04;7.90;99.90
32522;DHT22;18963;51.504;5.316;2023-02-12T17:59:30;7.90;99.90
32522;DHT22;18963;51.504;5.316;2023-02-12T18:01:55;7.90;99.90
32522;DHT22;18963;51.504;5.316;2023-02-12T18:04:21;7.80;99.90
32522;DHT22;18963;51.504;5.316;2023-02-12T18:06:46;7.90;99.90
32522;DHT22;18963;51.504;5.316;2023-02-12T18:09:12;7.80;99.90
32522;DHT22;18963;51.504;5.316;2023-02-12T18:11:37;7.80;99.90
32522;DHT22;18963;51.504;5.316;2023-02-12T18:14:04;7.80;99.90
32522;DHT22;18963;51.504;5.316;2023-02-12T18:16:31;7.80;99.90
32522;DHT22;18963;51.504;5.316;2023-02-12T18:18:57;7.80;99.90
32522;DHT22;18963;51.504;5.316;2023-02-12T18:21:24;7.80;99.90
32522;DHT22;18963;51.504;5.316;2023-02-12T18:23:51;7.80;99.90
32522;DHT22;18963;51.504;5.316;2023-02-12T18:26:17;7.80;99.90
32522;DHT22;18963;51.504;5.316;2023-02-12T18:28:42;7.70;99.90
32522;DHT22;18963;51.504;5.316;2023-02-12T18:31:08;7.80;99.90
32522;DHT22;18963;51.504;5.316;2023-02-12T18:33:34;7.70;99.90
32522;DHT22;18963;51.504;5.316;2023-02-12T18:38:26;7.70;99.90